createdAt,value
2023-02-24T00:02:05.605Z,5.10
2023-02-24T00:04:41.167Z,4.67
2023-02-24T00:07:13.047Z,4.67
2023-02-24T00:09:39.909Z,4.23
2023-02-24T00:12:10.157Z,5.20
2023-02-24T00:14:39.140Z,4.90
2023-02-24T00:17:09.991Z,6.27
2023-02-24T00:19:40.525Z,5.13
2023-02-24T00:22:08.740Z,5.10
2023-02-24T00:24:36.641Z,4.80
2023-02-24T00:27:10.605Z,4.63
2023-02-24T00:29:41.975Z,5.30
2023-02-24T00:32:13.175Z,5.13
2023-02-24T00:34:41.599Z,4.43
2023-02-24T00:37:09.131Z,4.70
2023-02-24T00:39:37.188Z,4.97
2023-02-24T00:42:05.784Z,4.47
2023-02-24T00:44:39.266Z,3.80
2023-02-24T00:47:08.104Z,4.33
2023-02-24T00:49:36.499Z,4.37
2023-02-24T00:52:08.680Z,4.00
2023-02-24T00:54:38.598Z,4.00
2023-02-24T00:57:08.382Z,4.67
2023-02-24T00:59:37.032Z,3.27
2023-02-24T01:02:08.852Z,4.63
2023-02-24T01:04:37.720Z,3.03
2023-02-24T01:07:10.612Z,3.90
2023-02-24T01:09:39.067Z,3.53
2023-02-24T01:12:27.653Z,3.60
2023-02-24T01:14:55.390Z,3.93
2023-02-24T01:17:22.907Z,3.30
2023-02-24T01:19:50.396Z,3.43
2023-02-24T01:22:20.315Z,3.70
2023-02-24T01:24:47.819Z,3.80
2023-02-24T01:27:18.581Z,3.17
2023-02-24T01:29:47.693Z,3.10
2023-02-24T01:32:19.569Z,3.43
2023-02-24T01:34:47.412Z,2.83
2023-02-24T01:37:17.268Z,3.07
2023-02-24T01:39:48.237Z,2.97
2023-02-24T01:42:19.735Z,3.37
2023-02-24T01:44:46.723Z,3.23
2023-02-24T01:47:21.367Z,3.47
2023-02-24T01:49:51.633Z,3.33
2023-02-24T01:52:27.066Z,2.80
2023-02-24T01:55:01.269Z,3.97
2023-02-24T01:57:31.462Z,3.47
2023-02-24T02:00:02.010Z,3.50
2023-02-24T02:02:29.533Z,3.37
2023-02-24T02:05:08.203Z,3.80
2023-02-24T02:07:35.639Z,3.70
2023-02-24T02:10:06.533Z,3.03
2023-02-24T02:12:37.284Z,3.00
2023-02-24T02:15:06.579Z,3.57
2023-02-24T02:17:40.900Z,3.33
2023-02-24T02:20:48.114Z,3.53
2023-02-24T02:23:33.933Z,3.73
2023-02-24T02:26:40.438Z,2.83
2023-02-24T02:29:28.625Z,3.17
2023-02-24T02:32:17.273Z,3.40
2023-02-24T02:34:59.191Z,3.50
2023-02-24T02:37:41.454Z,3.33
2023-02-24T02:40:24.053Z,3.23
2023-02-24T02:43:17.325Z,3.40
2023-02-24T02:45:55.960Z,2.97
2023-02-24T02:48:25.766Z,3.00
2023-02-24T02:50:57.710Z,3.17
2023-02-24T02:53:29.971Z,3.27
2023-02-24T02:56:00.005Z,3.37
2023-02-24T02:58:32.768Z,3.17
2023-02-24T03:01:07.343Z,4.13
2023-02-24T03:03:49.344Z,3.23
2023-02-24T03:06:33.948Z,3.40
2023-02-24T03:09:17.950Z,4.57
2023-02-24T03:11:49.314Z,3.60
2023-02-24T03:14:19.355Z,3.33
2023-02-24T03:16:51.653Z,2.87
2023-02-24T03:19:23.066Z,3.90
2023-02-24T03:22:18.277Z,3.00
2023-02-24T03:24:46.070Z,3.33
2023-02-24T03:27:23.314Z,3.40
2023-02-24T03:30:22.620Z,3.20
2023-02-24T03:33:21.437Z,2.47
2023-02-24T03:35:59.748Z,2.97
2023-02-24T03:38:26.622Z,2.83
2023-02-24T03:40:53.680Z,2.97
2023-02-24T03:43:29.051Z,3.17
2023-02-24T03:45:57.499Z,3.03
2023-02-24T03:48:27.162Z,2.83
2023-02-24T03:50:54.381Z,2.97
2023-02-24T03:53:33.862Z,2.87
2023-02-24T03:56:10.935Z,2.27
2023-02-24T03:58:47.295Z,2.60
2023-02-24T04:01:32.800Z,2.97
2023-02-24T04:04:27.404Z,2.60
2023-02-24T04:07:19.583Z,2.57
2023-02-24T04:10:21.902Z,3.07
2023-02-24T04:13:04.972Z,2.57
2023-02-24T04:15:38.057Z,2.77
2023-02-24T04:18:14.015Z,2.70
2023-02-24T04:20:43.656Z,2.80
2023-02-24T04:23:16.668Z,2.83
2023-02-24T04:25:47.469Z,2.77
2023-02-24T04:28:15.585Z,2.27
2023-02-24T04:30:48.507Z,2.40
2023-02-24T04:33:15.904Z,2.80
2023-02-24T04:35:45.994Z,3.13
2023-02-24T04:38:13.111Z,2.47
2023-02-24T04:40:42.926Z,2.70
2023-02-24T04:43:09.790Z,2.43
2023-02-24T04:45:40.113Z,2.37
2023-02-24T04:48:12.927Z,2.57
2023-02-24T04:50:44.188Z,2.57
2023-02-24T04:53:16.197Z,2.70
2023-02-24T04:55:49.131Z,2.90
2023-02-24T04:58:21.460Z,3.10
2023-02-24T05:00:52.758Z,2.37
2023-02-24T05:03:22.376Z,3.03
2023-02-24T05:05:52.154Z,2.53
2023-02-24T05:08:20.195Z,2.47
2023-02-24T05:10:47.534Z,2.33
2023-02-24T05:13:17.785Z,2.97
2023-02-24T05:15:45.864Z,2.77
2023-02-24T05:18:14.833Z,2.63
2023-02-24T05:21:09.014Z,3.00
2023-02-24T05:23:44.288Z,1.93
2023-02-24T05:26:16.171Z,2.50
2023-02-24T05:28:52.202Z,2.13
2023-02-24T05:31:23.962Z,2.50
2023-02-24T05:33:57.737Z,3.20
2023-02-24T05:36:27.505Z,2.60
2023-02-24T05:38:58.040Z,2.37
2023-02-24T05:41:35.721Z,2.70
2023-02-24T05:44:08.503Z,2.90
2023-02-24T05:46:38.066Z,2.70
2023-02-24T05:49:10.296Z,2.57
2023-02-24T05:51:39.284Z,2.93
2023-02-24T05:54:13.123Z,3.00
2023-02-24T05:56:43.896Z,2.40
2023-02-24T05:59:12.514Z,2.90
2023-02-24T06:01:41.761Z,2.60
2023-02-24T06:04:09.804Z,2.10
2023-02-24T06:06:38.769Z,2.37
2023-02-24T06:09:14.745Z,2.57
2023-02-24T06:11:43.389Z,2.60
2023-02-24T06:14:12.307Z,2.27
2023-02-24T06:16:41.628Z,2.70
2023-02-24T06:19:10.500Z,2.20
2023-02-24T06:21:43.822Z,2.90
2023-02-24T06:24:15.406Z,2.60
2023-02-24T06:26:45.744Z,2.50
2023-02-24T06:29:17.706Z,1.77
2023-02-24T06:31:45.062Z,2.07
2023-02-24T06:34:18.448Z,1.90
2023-02-24T06:36:49.156Z,2.00
2023-02-24T06:39:16.947Z,2.40
2023-02-24T06:41:43.776Z,1.80
2023-02-24T06:44:10.623Z,2.50
2023-02-24T06:46:37.708Z,1.80
2023-02-24T06:49:04.744Z,1.70
2023-02-24T06:51:31.945Z,2.07
2023-02-24T06:53:59.680Z,2.13
2023-02-24T06:56:27.908Z,2.23
2023-02-24T06:58:56.935Z,2.00
2023-02-24T07:01:26.822Z,2.67
2023-02-24T07:04:08.065Z,2.13
2023-02-24T07:06:38.297Z,2.10
2023-02-24T07:09:14.093Z,3.00
2023-02-24T07:11:45.773Z,2.17
2023-02-24T07:14:13.985Z,1.70
2023-02-24T07:16:45.834Z,1.87
2023-02-24T07:19:16.600Z,1.70
2023-02-24T07:21:50.029Z,1.87
2023-02-24T07:24:25.189Z,1.80
2023-02-24T07:27:01.054Z,1.50
2023-02-24T07:29:32.390Z,1.43
2023-02-24T07:32:03.570Z,1.80
2023-02-24T07:34:31.449Z,1.50
2023-02-24T07:36:58.336Z,1.80
2023-02-24T07:39:25.787Z,2.00
2023-02-24T07:41:55.239Z,1.60
2023-02-24T07:44:24.379Z,1.27
2023-02-24T07:46:55.313Z,1.87
2023-02-24T07:49:26.032Z,1.97
2023-02-24T07:51:57.676Z,1.47
2023-02-24T07:54:27.267Z,1.77
2023-02-24T07:56:57.138Z,2.30
2023-02-24T07:59:30.155Z,1.73
2023-02-24T08:01:57.593Z,1.80
2023-02-24T08:04:28.597Z,1.53
2023-02-24T08:06:56.669Z,1.63
2023-02-24T08:09:44.841Z,1.50
2023-02-24T08:12:21.862Z,1.87
2023-02-24T08:14:51.698Z,1.20
2023-02-24T08:17:20.413Z,1.77
2023-02-24T08:19:49.203Z,1.80
2023-02-24T08:22:20.402Z,1.97
2023-02-24T08:24:56.096Z,1.57
2023-02-24T08:27:24.724Z,1.63
2023-02-24T08:30:00.259Z,1.50
2023-02-24T08:32:34.686Z,1.93
2023-02-24T08:35:17.663Z,1.70
2023-02-24T08:37:49.970Z,1.90
2023-02-24T08:40:32.610Z,1.47
2023-02-24T08:43:09.986Z,1.27
2023-02-24T08:45:38.511Z,1.63
2023-02-24T08:48:18.217Z,1.63
2023-02-24T08:50:45.735Z,1.87
2023-02-24T08:53:19.238Z,2.00
2023-02-24T08:55:52.816Z,1.87
2023-02-24T08:58:27.047Z,1.27
2023-02-24T09:00:59.462Z,1.87
2023-02-24T09:03:29.296Z,2.10
2023-02-24T09:06:08.867Z,1.60
2023-02-24T09:08:38.551Z,2.23
2023-02-24T09:11:14.103Z,1.30
2023-02-24T09:13:57.660Z,1.70
2023-02-24T09:16:25.247Z,1.47
2023-02-24T09:19:11.057Z,1.80
2023-02-24T09:21:50.837Z,1.70
2023-02-24T09:24:27.537Z,1.77
2023-02-24T09:27:04.646Z,1.97
2023-02-24T09:29:34.098Z,1.83
2023-02-24T09:32:05.838Z,2.00
2023-02-24T09:34:34.554Z,1.90
2023-02-24T09:37:03.059Z,2.23
2023-02-24T09:39:53.004Z,2.00
2023-02-24T09:42:28.690Z,2.07
2023-02-24T09:45:01.604Z,2.43
2023-02-24T09:47:39.485Z,1.87
2023-02-24T09:50:16.247Z,1.87
2023-02-24T09:52:44.167Z,1.77
2023-02-24T09:55:26.706Z,1.97
2023-02-24T09:58:15.296Z,1.70
2023-02-24T10:00:59.343Z,2.03
2023-02-24T10:03:42.742Z,2.80
2023-02-24T10:06:23.534Z,1.80
2023-02-24T10:08:58.629Z,2.10
2023-02-24T10:11:34.394Z,1.60
2023-02-24T10:14:06.551Z,2.43
2023-02-24T10:16:44.498Z,2.40
2023-02-24T10:19:27.031Z,2.20
2023-02-24T10:22:08.501Z,2.30
2023-02-24T10:24:38.010Z,2.90
2023-02-24T10:27:25.532Z,2.10
2023-02-24T10:30:20.150Z,2.00
2023-02-24T10:32:58.834Z,2.10
2023-02-24T10:35:33.954Z,2.93
2023-02-24T10:38:05.866Z,2.23
2023-02-24T10:40:47.098Z,2.43
2023-02-24T10:43:30.536Z,2.70
2023-02-24T10:46:26.440Z,1.97
2023-02-24T10:49:03.676Z,2.60
2023-02-24T10:51:42.038Z,2.30
2023-02-24T10:54:30.815Z,2.60
2023-02-24T10:57:18.628Z,2.77
2023-02-24T11:00:05.897Z,2.80
2023-02-24T11:03:06.210Z,2.30
2023-02-24T11:06:04.282Z,2.63
2023-02-24T11:08:36.911Z,3.00
2023-02-24T11:11:20.359Z,2.77
2023-02-24T11:14:11.368Z,2.93
2023-02-24T11:17:12.922Z,3.23
2023-02-24T11:20:10.970Z,3.00
2023-02-24T11:22:48.088Z,4.20
2023-02-24T11:25:39.636Z,3.37
2023-02-24T11:28:16.826Z,3.43
2023-02-24T11:31:04.969Z,3.70
2023-02-24T11:33:47.451Z,3.97
2023-02-24T11:36:33.348Z,3.63
2023-02-24T11:39:26.600Z,3.60
2023-02-24T11:41:57.318Z,3.50
2023-02-24T11:44:37.304Z,3.97
2023-02-24T11:47:10.739Z,3.50
2023-02-24T11:49:42.780Z,4.07
2023-02-24T11:52:37.033Z,3.47
2023-02-24T11:55:14.224Z,4.40
2023-02-24T11:57:50.230Z,4.27
2023-02-24T12:00:20.337Z,4.47
2023-02-24T12:03:17.157Z,3.80
2023-02-24T12:05:56.492Z,5.30
2023-02-24T12:08:35.801Z,4.00
2023-02-24T12:11:18.042Z,4.60
2023-02-24T12:13:55.605Z,4.17
2023-02-24T12:16:31.448Z,4.50
2023-02-24T12:19:27.816Z,4.67
2023-02-24T12:22:10.112Z,3.10
2023-02-24T12:24:37.199Z,3.17
2023-02-24T12:27:20.827Z,3.20
2023-02-24T12:29:57.330Z,3.77
2023-02-24T12:33:05.294Z,3.50
2023-02-24T12:36:10.141Z,3.20
2023-02-24T12:38:48.183Z,3.07
2023-02-24T12:41:37.383Z,3.43
2023-02-24T12:44:24.419Z,3.10
2023-02-24T12:47:01.628Z,3.23
2023-02-24T12:50:06.754Z,3.30
2023-02-24T12:53:16.119Z,2.87
2023-02-24T12:56:07.931Z,3.63
2023-02-24T12:58:41.547Z,3.77
2023-02-24T13:01:39.191Z,3.50
2023-02-24T13:04:39.316Z,3.43
2023-02-24T13:07:36.630Z,3.53
2023-02-24T13:10:09.457Z,3.80
2023-02-24T13:13:03.733Z,3.87
2023-02-24T13:15:33.870Z,3.60
2023-02-24T13:18:01.314Z,4.00
2023-02-24T13:20:38.221Z,4.30
2023-02-24T13:23:19.760Z,3.63
2023-02-24T13:25:54.794Z,4.60
2023-02-24T13:28:31.157Z,3.27
2023-02-24T13:31:05.473Z,3.70
2023-02-24T13:33:40.862Z,3.57
2023-02-24T13:36:23.072Z,4.07
2023-02-24T13:39:07.651Z,4.20
2023-02-24T13:41:40.865Z,4.57
2023-02-24T13:44:22.358Z,4.50
2023-02-24T13:47:20.169Z,4.77
2023-02-24T13:50:23.340Z,4.77
2023-02-24T13:53:24.599Z,4.63
2023-02-24T13:56:10.990Z,4.67
2023-02-24T13:59:05.130Z,5.07
2023-02-24T14:01:47.043Z,5.00
2023-02-24T14:04:15.930Z,5.40
2023-02-24T14:07:05.102Z,5.83
2023-02-24T14:09:35.093Z,6.63
2023-02-24T14:12:08.240Z,5.93
2023-02-24T14:14:35.324Z,5.50
2023-02-24T14:17:05.184Z,5.90
2023-02-24T14:19:35.078Z,6.00
2023-02-24T14:22:05.841Z,5.53
2023-02-24T14:24:32.746Z,5.13
2023-02-24T14:27:01.342Z,3.13
2023-02-24T14:29:43.590Z,2.20
2023-02-24T14:32:26.167Z,2.87
2023-02-24T14:34:54.234Z,1.77
2023-02-24T14:37:25.961Z,1.70
2023-02-24T14:39:58.605Z,2.73
2023-02-24T14:42:26.638Z,2.30
2023-02-24T14:44:57.949Z,2.33
2023-02-24T14:47:29.014Z,2.63
2023-02-24T14:50:04.596Z,1.63
2023-02-24T14:52:38.752Z,1.90
2023-02-24T14:55:07.620Z,2.43
2023-02-24T14:57:43.526Z,1.60
2023-02-24T15:00:17.694Z,1.90
2023-02-24T15:02:50.678Z,1.97
2023-02-24T15:05:17.609Z,1.60
2023-02-24T15:07:45.369Z,1.63
2023-02-24T15:10:21.305Z,1.50
2023-02-24T15:12:54.191Z,1.60
2023-02-24T15:15:28.351Z,1.83
2023-02-24T15:17:59.530Z,1.50
2023-02-24T15:20:33.452Z,2.43
2023-02-24T15:23:00.586Z,1.87
2023-02-24T15:25:41.787Z,1.40
2023-02-24T15:28:33.807Z,2.10
2023-02-24T15:31:05.229Z,2.43
2023-02-24T15:34:02.306Z,1.57
2023-02-24T15:36:33.416Z,1.63
2023-02-24T15:39:06.918Z,1.67
2023-02-24T15:41:40.943Z,2.10
2023-02-24T15:44:32.079Z,2.17
2023-02-24T15:47:18.045Z,1.70
2023-02-24T15:49:44.766Z,2.70
2023-02-24T15:52:14.797Z,2.03
2023-02-24T15:54:44.343Z,1.60
2023-02-24T15:57:14.520Z,1.63
2023-02-24T15:59:41.945Z,1.87
2023-02-24T16:02:19.764Z,1.77
2023-02-24T16:04:47.954Z,1.80
2023-02-24T16:07:36.574Z,1.97
2023-02-24T16:10:04.720Z,1.07
2023-02-24T16:12:35.828Z,1.00
2023-02-24T16:15:06.144Z,1.27
2023-02-24T16:17:38.941Z,1.10
2023-02-24T16:20:09.139Z,1.43
2023-02-24T16:22:36.046Z,1.07
2023-02-24T16:25:03.480Z,1.30
2023-02-24T16:27:31.384Z,0.93
2023-02-24T16:29:58.954Z,1.00
2023-02-24T16:32:29.216Z,1.27
2023-02-24T16:34:57.388Z,1.20
2023-02-24T16:37:28.197Z,0.80
2023-02-24T16:39:55.602Z,0.67
2023-02-24T16:42:22.774Z,1.07
2023-02-24T16:44:50.244Z,0.70
2023-02-24T16:47:23.299Z,1.10
2023-02-24T16:49:51.111Z,1.20
2023-02-24T16:52:23.385Z,1.00
2023-02-24T16:54:50.509Z,1.47
2023-02-24T16:57:17.694Z,1.30
2023-02-24T16:59:44.485Z,0.63
2023-02-24T17:02:22.969Z,0.80
2023-02-24T17:04:49.984Z,0.77
2023-02-24T17:07:19.047Z,0.60
2023-02-24T17:09:45.823Z,0.67
2023-02-24T17:12:21.733Z,0.50
2023-02-24T17:14:48.931Z,1.00
2023-02-24T17:17:15.811Z,0.70
2023-02-24T17:19:42.661Z,0.90
2023-02-24T17:22:10.443Z,0.73
2023-02-24T17:24:37.147Z,0.70
2023-02-24T17:27:04.384Z,1.20
2023-02-24T17:29:31.308Z,1.20
2023-02-24T17:31:58.199Z,0.87
2023-02-24T17:34:25.105Z,1.00
2023-02-24T17:36:51.948Z,0.97
2023-02-24T17:39:18.766Z,1.20
2023-02-24T17:41:45.635Z,1.17
2023-02-24T17:44:12.562Z,0.93
2023-02-24T17:46:39.360Z,0.97
2023-02-24T17:49:06.353Z,0.70
2023-02-24T17:51:35.513Z,0.80
2023-02-24T17:54:02.731Z,1.43
2023-02-24T17:56:32.147Z,1.30
2023-02-24T17:59:00.976Z,1.67
2023-02-24T18:01:28.434Z,1.73
2023-02-24T18:03:57.441Z,1.70
2023-02-24T18:06:25.122Z,2.13
2023-02-24T18:08:52.225Z,2.20
2023-02-24T18:11:19.985Z,1.40
2023-02-24T18:13:48.656Z,1.53
2023-02-24T18:16:16.411Z,1.50
2023-02-24T18:18:43.638Z,1.40
2023-02-24T18:21:10.533Z,1.97
2023-02-24T18:23:40.275Z,1.87
2023-02-24T18:26:08.866Z,1.77
2023-02-24T18:28:36.309Z,1.80
2023-02-24T18:31:13.451Z,1.87
2023-02-24T18:33:40.439Z,1.70
2023-02-24T18:36:07.917Z,2.40
2023-02-24T18:38:34.901Z,1.90
2023-02-24T18:41:07.533Z,1.63
2023-02-24T18:43:35.602Z,1.67
2023-02-24T18:46:04.414Z,1.50
2023-02-24T18:48:34.246Z,1.70
2023-02-24T18:51:04.565Z,1.87
2023-02-24T18:53:35.802Z,1.60
2023-02-24T18:56:11.201Z,1.93
2023-02-24T18:58:39.426Z,1.73
2023-02-24T19:01:22.624Z,2.03
2023-02-24T19:03:51.007Z,1.90
2023-02-24T19:06:20.683Z,1.90
2023-02-24T19:08:50.525Z,1.67
2023-02-24T19:11:20.111Z,1.50
2023-02-24T19:13:48.051Z,1.87
2023-02-24T19:16:16.448Z,1.83
2023-02-24T19:18:43.711Z,1.80
2023-02-24T19:21:10.951Z,1.87
2023-02-24T19:23:38.181Z,2.00
2023-02-24T19:26:07.183Z,1.90
2023-02-24T19:28:33.899Z,1.97
2023-02-24T19:31:00.816Z,1.80
2023-02-24T19:33:27.619Z,1.93
2023-02-24T19:35:59.603Z,1.70
2023-02-24T19:38:29.484Z,1.90
2023-02-24T19:41:00.074Z,2.53
2023-02-24T19:43:29.312Z,2.00
2023-02-24T19:45:56.203Z,2.53
2023-02-24T19:48:23.043Z,3.83
2023-02-24T19:50:49.833Z,3.37
2023-02-24T19:53:16.683Z,3.50
2023-02-24T19:55:49.223Z,2.97
2023-02-24T19:58:16.128Z,2.47
2023-02-24T20:00:43.000Z,3.53
2023-02-24T20:03:09.899Z,3.00
2023-02-24T20:05:37.506Z,4.37
2023-02-24T20:08:04.693Z,3.37
2023-02-24T20:10:31.654Z,3.00
2023-02-24T20:12:58.606Z,4.07
2023-02-24T20:15:25.418Z,3.90
2023-02-24T20:17:52.417Z,5.57
2023-02-24T20:20:26.761Z,3.67
2023-02-24T20:22:56.636Z,3.40
2023-02-24T20:25:23.398Z,3.40
2023-02-24T20:27:50.082Z,3.13
2023-02-24T20:30:17.201Z,3.10
2023-02-24T20:32:44.220Z,2.90
2023-02-24T20:35:11.226Z,2.40
2023-02-24T20:37:41.218Z,2.47
2023-02-24T20:40:09.100Z,2.50
2023-02-24T20:42:35.890Z,2.90
2023-02-24T20:45:03.506Z,2.17
2023-02-24T20:47:30.337Z,2.50
2023-02-24T20:49:57.143Z,2.30
2023-02-24T20:52:24.081Z,2.60
2023-02-24T20:54:53.701Z,2.50
2023-02-24T20:57:20.619Z,2.50
2023-02-24T21:00:02.572Z,2.47
2023-02-24T21:02:30.019Z,2.23
2023-02-24T21:04:56.897Z,2.33
2023-02-24T21:07:26.566Z,1.87
2023-02-24T21:09:53.371Z,2.47
2023-02-24T21:12:20.169Z,2.20
2023-02-24T21:15:07.281Z,2.43
2023-02-24T21:17:34.987Z,2.53
2023-02-24T21:20:04.730Z,2.13
2023-02-24T21:22:34.842Z,1.90
2023-02-24T21:25:01.989Z,2.87
2023-02-24T21:27:33.361Z,1.80
2023-02-24T21:30:00.292Z,1.83
2023-02-24T21:32:27.596Z,2.50
2023-02-24T21:34:54.424Z,1.73
2023-02-24T21:37:21.229Z,2.00
2023-02-24T21:39:48.022Z,2.10
2023-02-24T21:42:14.904Z,2.40
2023-02-24T21:44:44.441Z,2.10
2023-02-24T21:47:11.567Z,1.67
2023-02-24T21:49:38.285Z,2.07
2023-02-24T21:52:05.538Z,1.83
2023-02-24T21:54:32.960Z,2.27
2023-02-24T21:56:59.896Z,1.87
2023-02-24T21:59:26.776Z,2.13
2023-02-24T22:01:54.316Z,1.77
2023-02-24T22:04:21.911Z,1.40
2023-02-24T22:06:49.010Z,1.43
2023-02-24T22:09:19.717Z,1.20
2023-02-24T22:11:48.638Z,2.23
2023-02-24T22:14:17.191Z,1.60
2023-02-24T22:16:47.183Z,1.60
2023-02-24T22:19:14.064Z,1.53
2023-02-24T22:21:42.588Z,1.77
2023-02-24T22:24:13.242Z,1.53
2023-02-24T22:26:40.307Z,1.37
2023-02-24T22:29:07.648Z,1.43
2023-02-24T22:31:36.832Z,1.20
2023-02-24T22:34:04.543Z,1.30
2023-02-24T22:36:36.689Z,2.17
2023-02-24T22:39:04.982Z,1.50
2023-02-24T22:41:36.908Z,1.70
2023-02-24T22:44:05.432Z,1.70
2023-02-24T22:46:35.458Z,2.43
2023-02-24T22:49:02.393Z,1.40
2023-02-24T22:51:29.688Z,1.53
2023-02-24T22:53:59.870Z,1.73
2023-02-24T22:56:29.107Z,1.70
2023-02-24T22:58:56.774Z,1.80
2023-02-24T23:01:30.076Z,1.90
2023-02-24T23:04:00.622Z,1.70
2023-02-24T23:06:28.094Z,1.70
2023-02-24T23:08:57.093Z,2.00
2023-02-24T23:11:41.780Z,1.83
2023-02-24T23:14:13.528Z,1.87
2023-02-24T23:16:42.764Z,2.03
2023-02-24T23:19:18.039Z,2.03
2023-02-24T23:21:53.621Z,2.43
2023-02-24T23:24:24.355Z,2.37
2023-02-24T23:26:57.680Z,1.90
2023-02-24T23:29:26.556Z,2.37
2023-02-24T23:31:57.329Z,2.83
2023-02-24T23:34:25.086Z,2.40
2023-02-24T23:36:54.673Z,2.33
2023-02-24T23:39:23.612Z,2.20
2023-02-24T23:41:56.707Z,2.13
2023-02-24T23:44:27.326Z,2.10
2023-02-24T23:46:54.839Z,1.67
2023-02-24T23:49:21.590Z,1.97
2023-02-24T23:51:49.176Z,1.80
2023-02-24T23:54:21.988Z,1.97
2023-02-24T23:56:48.836Z,1.90
2023-02-24T23:59:23.529Z,1.33
